createdAt,value
2022-09-17T00:00:39.215Z,0.00
2022-09-17T00:01:39.247Z,0.00
2022-09-17T00:02:39.317Z,0.00
2022-09-17T00:03:39.260Z,0.00
2022-09-17T00:04:39.291Z,0.00
2022-09-17T00:05:39.295Z,0.00
2022-09-17T00:06:39.307Z,0.00
2022-09-17T00:07:39.321Z,0.00
2022-09-17T00:08:39.337Z,0.00
2022-09-17T00:09:39.353Z,0.00
2022-09-17T00:10:39.372Z,0.00
2022-09-17T00:11:39.383Z,0.00
2022-09-17T00:12:39.397Z,0.00
2022-09-17T00:13:39.415Z,0.00
2022-09-17T00:14:39.426Z,0.00
2022-09-17T00:15:39.441Z,0.00
2022-09-17T00:16:39.455Z,0.00
2022-09-17T00:17:39.472Z,0.00
2022-09-17T00:18:39.488Z,0.00
2022-09-17T00:19:39.504Z,0.00
2022-09-17T00:20:39.518Z,0.00
2022-09-17T00:21:39.534Z,0.00
2022-09-17T00:22:39.559Z,0.00
2022-09-17T00:23:39.564Z,0.00
2022-09-17T00:24:39.577Z,0.00
2022-09-17T00:25:39.595Z,0.00
2022-09-17T00:26:39.614Z,0.00
2022-09-17T00:27:39.631Z,0.00
2022-09-17T00:28:39.641Z,0.00
2022-09-17T00:29:39.657Z,0.00
2022-09-17T00:30:39.672Z,0.00
2022-09-17T00:31:39.747Z,0.00
2022-09-17T00:32:39.701Z,0.00
2022-09-17T00:33:39.715Z,0.00
2022-09-17T00:34:39.733Z,0.00
2022-09-17T00:35:39.749Z,0.00
2022-09-17T00:36:39.766Z,0.00
2022-09-17T00:37:39.780Z,0.00
2022-09-17T00:38:39.795Z,0.00
2022-09-17T00:39:39.810Z,0.00
2022-09-17T00:40:39.823Z,0.00
2022-09-17T00:41:39.844Z,0.00
2022-09-17T00:42:39.853Z,0.00
2022-09-17T00:43:39.870Z,0.00
2022-09-17T00:44:39.897Z,0.00
2022-09-17T00:45:40.166Z,0.00
2022-09-17T00:46:39.958Z,0.00
2022-09-17T00:47:39.932Z,0.00
2022-09-17T00:48:39.948Z,0.00
2022-09-17T00:49:39.962Z,0.00
2022-09-17T00:50:39.977Z,0.00
2022-09-17T00:51:39.993Z,0.00
2022-09-17T00:52:40.008Z,0.00
2022-09-17T00:53:40.029Z,0.00
2022-09-17T00:54:40.043Z,0.00
2022-09-17T00:55:40.056Z,0.00
2022-09-17T00:56:40.072Z,0.00
2022-09-17T00:57:40.086Z,0.00
2022-09-17T00:58:41.432Z,0.00
2022-09-17T00:59:40.116Z,0.00
2022-09-17T01:00:40.189Z,0.00
2022-09-17T01:01:40.171Z,0.00
2022-09-17T01:02:40.164Z,0.00
2022-09-17T01:03:40.177Z,0.00
2022-09-17T01:04:40.195Z,0.00
2022-09-17T01:05:40.215Z,0.00
2022-09-17T01:06:40.223Z,0.00
2022-09-17T01:07:40.239Z,0.00
2022-09-17T01:08:40.434Z,0.00
2022-09-17T01:09:40.273Z,0.00
2022-09-17T01:10:40.288Z,0.00
2022-09-17T01:11:40.300Z,0.00
2022-09-17T01:12:40.316Z,0.00
2022-09-17T01:13:40.333Z,0.00
2022-09-17T01:14:40.347Z,0.00
2022-09-17T01:15:40.460Z,0.00
2022-09-17T01:16:40.377Z,0.00
2022-09-17T01:17:40.395Z,0.00
2022-09-17T01:18:40.409Z,0.00
2022-09-17T01:19:40.424Z,0.00
2022-09-17T01:20:40.440Z,0.00
2022-09-17T01:21:40.458Z,0.00
2022-09-17T01:22:40.470Z,0.00
2022-09-17T01:23:40.486Z,0.00
2022-09-17T01:24:40.504Z,0.00
2022-09-17T01:25:40.518Z,0.00
2022-09-17T01:26:40.535Z,0.00
2022-09-17T01:27:45.029Z,0.00
2022-09-17T01:28:40.563Z,0.00
2022-09-17T01:29:40.580Z,0.00
2022-09-17T01:30:40.595Z,0.00
2022-09-17T01:31:40.637Z,0.00
2022-09-17T01:32:40.625Z,0.00
2022-09-17T01:33:40.643Z,0.00
2022-09-17T01:34:40.657Z,0.00
2022-09-17T01:35:40.672Z,0.00
2022-09-17T01:36:40.687Z,0.00
2022-09-17T01:37:40.705Z,0.00
2022-09-17T01:38:40.718Z,0.00
2022-09-17T01:39:40.735Z,0.00
2022-09-17T01:40:40.750Z,0.00
2022-09-17T01:41:40.765Z,0.00
2022-09-17T01:42:40.780Z,0.00
2022-09-17T01:43:40.796Z,0.00
2022-09-17T01:44:40.812Z,0.00
2022-09-17T01:45:40.827Z,0.00
2022-09-17T01:46:40.886Z,0.00
2022-09-17T01:47:40.858Z,0.00
2022-09-17T01:48:40.875Z,0.00
2022-09-17T01:49:40.890Z,0.00
2022-09-17T01:50:40.902Z,0.00
2022-09-17T01:51:40.920Z,0.00
2022-09-17T01:52:40.939Z,0.00
2022-09-17T01:53:40.953Z,0.00
2022-09-17T01:54:42.566Z,0.00
2022-09-17T01:55:40.985Z,0.00
2022-09-17T01:56:41.000Z,0.00
2022-09-17T01:57:41.014Z,0.00
2022-09-17T01:58:41.027Z,0.00
2022-09-17T01:59:41.044Z,0.00
2022-09-17T02:00:41.092Z,0.00
2022-09-17T02:01:41.110Z,0.00
2022-09-17T02:02:41.091Z,0.00
2022-09-17T02:03:41.108Z,0.00
2022-09-17T02:04:41.128Z,0.00
2022-09-17T02:05:41.140Z,0.00
2022-09-17T02:06:41.153Z,0.00
2022-09-17T02:07:41.175Z,0.00
2022-09-17T02:08:41.189Z,0.00
2022-09-17T02:09:41.204Z,0.00
2022-09-17T02:10:41.219Z,0.00
2022-09-17T02:11:41.237Z,0.00
2022-09-17T02:12:41.250Z,0.00
2022-09-17T02:13:41.268Z,0.00
2022-09-17T02:14:41.280Z,0.00
2022-09-17T02:15:41.296Z,0.00
2022-09-17T02:16:41.312Z,0.00
2022-09-17T02:17:41.328Z,0.00
2022-09-17T02:18:41.358Z,0.00
2022-09-17T02:19:41.361Z,0.00
2022-09-17T02:20:41.376Z,0.00
2022-09-17T02:21:41.394Z,0.00
2022-09-17T02:22:41.409Z,0.00
2022-09-17T02:23:41.423Z,0.00
2022-09-17T02:24:41.441Z,0.00
2022-09-17T02:25:41.454Z,0.00
2022-09-17T02:26:41.469Z,0.00
2022-09-17T02:27:41.487Z,0.00
2022-09-17T02:28:41.502Z,0.00
2022-09-17T02:29:41.518Z,0.00
2022-09-17T02:30:41.534Z,0.00
2022-09-17T02:31:41.603Z,0.00
2022-09-17T02:32:41.566Z,0.00
2022-09-17T02:33:41.583Z,0.00
2022-09-17T02:34:41.609Z,0.00
2022-09-17T02:35:41.617Z,0.00
2022-09-17T02:36:41.629Z,0.00
2022-09-17T02:37:41.651Z,0.00
2022-09-17T02:38:41.662Z,0.00
2022-09-17T02:39:41.678Z,0.00
2022-09-17T02:40:41.694Z,0.00
2022-09-17T02:41:41.711Z,0.00
2022-09-17T02:42:41.775Z,0.00
2022-09-17T02:43:41.742Z,0.00
2022-09-17T02:44:41.759Z,0.00
2022-09-17T02:45:41.773Z,0.00
2022-09-17T02:46:41.820Z,0.00
2022-09-17T02:47:41.804Z,0.00
2022-09-17T02:48:41.820Z,0.00
2022-09-17T02:49:41.837Z,0.00
2022-09-17T02:50:41.852Z,0.00
2022-09-17T02:51:41.868Z,0.00
2022-09-17T02:52:41.884Z,0.00
2022-09-17T02:53:41.901Z,0.00
2022-09-17T02:54:41.917Z,0.00
2022-09-17T02:55:41.937Z,0.00
2022-09-17T02:56:41.951Z,0.00
2022-09-17T02:57:41.965Z,0.00
2022-09-17T02:58:41.979Z,0.00
2022-09-17T02:59:41.997Z,0.00
2022-09-17T03:00:42.025Z,0.00
2022-09-17T03:01:42.075Z,0.00
2022-09-17T03:02:42.045Z,0.00
2022-09-17T03:03:42.059Z,0.00
2022-09-17T03:04:42.077Z,0.00
2022-09-17T03:05:42.092Z,0.00
2022-09-17T03:06:42.107Z,0.00
2022-09-17T03:07:42.122Z,0.00
2022-09-17T03:08:42.139Z,0.00
2022-09-17T03:09:42.158Z,0.00
2022-09-17T03:10:42.171Z,0.00
2022-09-17T03:11:42.192Z,0.00
2022-09-17T03:12:42.206Z,0.00
2022-09-17T03:13:42.221Z,0.00
2022-09-17T03:14:42.231Z,0.00
2022-09-17T03:15:42.348Z,0.00
2022-09-17T03:16:42.267Z,0.00
2022-09-17T03:17:42.283Z,0.00
2022-09-17T03:18:42.297Z,0.00
2022-09-17T03:19:42.314Z,0.00
2022-09-17T03:20:42.331Z,0.00
2022-09-17T03:21:42.347Z,0.00
2022-09-17T03:22:42.362Z,0.00
2022-09-17T03:23:42.378Z,0.00
2022-09-17T03:24:42.395Z,0.00
2022-09-17T03:25:42.412Z,0.00
2022-09-17T03:26:42.426Z,0.00
2022-09-17T03:27:42.442Z,0.00
2022-09-17T03:28:42.461Z,0.00
2022-09-17T03:29:42.478Z,0.00
2022-09-17T03:30:42.495Z,0.00
2022-09-17T03:31:42.586Z,0.00
2022-09-17T03:32:42.522Z,0.00
2022-09-17T03:33:42.539Z,0.00
2022-09-17T03:34:42.554Z,0.00
2022-09-17T03:35:42.571Z,0.00
2022-09-17T03:36:42.589Z,0.00
2022-09-17T03:37:42.603Z,0.00
2022-09-17T03:38:42.618Z,0.00
2022-09-17T03:39:42.632Z,0.00
2022-09-17T03:40:42.652Z,0.00
2022-09-17T03:41:42.667Z,0.00
2022-09-17T03:42:42.690Z,0.00
2022-09-17T03:43:42.700Z,0.00
2022-09-17T03:44:45.266Z,0.00
2022-09-17T03:45:42.737Z,0.00
2022-09-17T03:46:42.781Z,0.00
2022-09-17T03:47:42.763Z,0.00
2022-09-17T03:48:42.779Z,0.00
2022-09-17T03:49:42.797Z,0.00
2022-09-17T03:50:42.811Z,0.00
2022-09-17T03:51:42.829Z,0.00
2022-09-17T03:52:42.844Z,0.00
2022-09-17T03:53:42.860Z,0.00
2022-09-17T03:54:42.876Z,0.00
2022-09-17T03:55:42.891Z,0.00
2022-09-17T03:56:42.908Z,0.00
2022-09-17T03:57:42.927Z,0.00
2022-09-17T03:58:42.940Z,0.00
2022-09-17T03:59:42.960Z,0.00
2022-09-17T04:00:42.983Z,0.00
2022-09-17T04:01:43.072Z,0.00
2022-09-17T04:02:43.085Z,0.00
2022-09-17T04:03:43.021Z,0.00
2022-09-17T04:04:43.036Z,0.00
2022-09-17T04:05:43.059Z,0.00
2022-09-17T04:06:43.067Z,0.00
2022-09-17T04:07:43.084Z,0.00
2022-09-17T04:08:43.099Z,0.00
2022-09-17T04:09:43.116Z,0.00
2022-09-17T04:10:43.134Z,0.00
2022-09-17T04:11:43.148Z,0.00
2022-09-17T04:12:43.166Z,0.00
2022-09-17T04:13:43.179Z,0.00
2022-09-17T04:14:43.195Z,0.00
2022-09-17T04:15:43.248Z,0.00
2022-09-17T04:16:43.228Z,0.00
2022-09-17T04:17:43.245Z,0.00
2022-09-17T04:18:43.260Z,0.00
2022-09-17T04:19:43.276Z,0.00
2022-09-17T04:20:43.292Z,0.00
2022-09-17T04:21:43.308Z,0.00
2022-09-17T04:22:43.325Z,0.00
2022-09-17T04:23:43.340Z,0.00
2022-09-17T04:24:43.356Z,0.00
2022-09-17T04:25:43.373Z,0.00
2022-09-17T04:26:43.391Z,0.00
2022-09-17T04:27:43.404Z,0.00
2022-09-17T04:28:43.421Z,0.00
2022-09-17T04:29:43.436Z,0.00
2022-09-17T04:30:43.473Z,0.00
2022-09-17T04:31:43.562Z,0.00
2022-09-17T04:32:43.484Z,0.00
2022-09-17T04:33:43.499Z,0.00
2022-09-17T04:34:43.523Z,0.00
2022-09-17T04:35:43.537Z,0.00
2022-09-17T04:36:43.547Z,0.00
2022-09-17T04:37:43.564Z,0.00
2022-09-17T04:38:43.583Z,0.00
2022-09-17T04:39:43.596Z,5.63
2022-09-17T04:40:43.636Z,5.63
2022-09-17T04:41:43.635Z,5.63
2022-09-17T04:42:43.645Z,5.63
2022-09-17T04:43:43.659Z,5.63
2022-09-17T04:44:43.678Z,5.63
2022-09-17T04:45:43.695Z,5.63
2022-09-17T04:46:43.786Z,5.63
2022-09-17T04:47:43.723Z,5.63
2022-09-17T04:48:43.743Z,5.63
2022-09-17T04:49:43.758Z,5.63
2022-09-17T04:50:43.772Z,5.63
2022-09-17T04:51:43.786Z,11.25
2022-09-17T04:52:43.804Z,11.25
2022-09-17T04:53:43.822Z,5.63
2022-09-17T04:54:43.836Z,5.63
2022-09-17T04:55:43.853Z,11.25
2022-09-17T04:56:43.868Z,11.25
2022-09-17T04:57:43.884Z,11.25
2022-09-17T04:58:43.899Z,11.25
2022-09-17T04:59:43.918Z,11.25
2022-09-17T05:00:43.980Z,11.25
2022-09-17T05:01:43.985Z,16.88
2022-09-17T05:02:43.967Z,16.88
2022-09-17T05:03:43.980Z,16.88
2022-09-17T05:04:43.997Z,11.25
2022-09-17T05:05:44.013Z,16.88
2022-09-17T05:06:44.029Z,16.88
2022-09-17T05:07:44.043Z,22.50
2022-09-17T05:08:44.062Z,22.50
2022-09-17T05:09:44.079Z,22.50
2022-09-17T05:10:44.090Z,22.50
2022-09-17T05:11:44.108Z,22.50
2022-09-17T05:12:44.127Z,22.50
2022-09-17T05:13:44.142Z,22.50
2022-09-17T05:14:44.159Z,22.50
2022-09-17T05:15:44.202Z,22.50
2022-09-17T05:16:44.190Z,28.13
2022-09-17T05:17:44.209Z,33.75
2022-09-17T05:18:44.224Z,33.75
2022-09-17T05:19:44.239Z,39.38
2022-09-17T05:20:44.254Z,45.00
2022-09-17T05:21:44.270Z,50.63
2022-09-17T05:22:44.289Z,45.00
2022-09-17T05:23:44.303Z,45.00
2022-09-17T05:24:44.320Z,56.25
2022-09-17T05:25:44.337Z,61.88
2022-09-17T05:26:44.352Z,67.50
2022-09-17T05:27:44.367Z,67.50
2022-09-17T05:28:44.384Z,56.25
2022-09-17T05:29:44.403Z,61.88
2022-09-17T05:30:44.417Z,78.75
2022-09-17T05:31:44.481Z,90.00
2022-09-17T05:32:44.450Z,67.50
2022-09-17T05:33:44.468Z,56.25
2022-09-17T05:34:44.482Z,73.13
2022-09-17T05:35:44.512Z,106.88
2022-09-17T05:36:44.516Z,157.50
2022-09-17T05:37:44.535Z,180.00
2022-09-17T05:38:44.548Z,225.00
2022-09-17T05:39:44.565Z,163.13
2022-09-17T05:40:44.583Z,118.13
2022-09-17T05:41:44.598Z,106.88
2022-09-17T05:42:44.615Z,118.13
2022-09-17T05:43:44.632Z,106.88
2022-09-17T05:44:44.648Z,95.63
2022-09-17T05:45:44.675Z,118.13
2022-09-17T05:46:44.737Z,118.13
2022-09-17T05:47:44.699Z,118.13
2022-09-17T05:48:44.720Z,95.63
2022-09-17T05:49:44.732Z,90.00
2022-09-17T05:50:44.748Z,78.75
2022-09-17T05:51:44.766Z,67.50
2022-09-17T05:52:44.782Z,67.50
2022-09-17T05:53:44.800Z,67.50
2022-09-17T05:54:44.816Z,61.88
2022-09-17T05:55:44.832Z,84.38
2022-09-17T05:56:44.852Z,90.00
2022-09-17T05:57:44.867Z,90.00
2022-09-17T05:58:44.893Z,95.63
2022-09-17T05:59:44.898Z,95.63
2022-09-17T06:00:44.916Z,118.13
2022-09-17T06:01:44.990Z,123.75
2022-09-17T06:02:45.006Z,135.00
2022-09-17T06:03:44.968Z,135.00
2022-09-17T06:04:44.985Z,135.00
2022-09-17T06:05:45.012Z,151.88
2022-09-17T06:06:45.016Z,168.75
2022-09-17T06:07:45.033Z,185.63
2022-09-17T06:08:45.050Z,202.50
2022-09-17T06:09:45.067Z,180.00
2022-09-17T06:10:45.083Z,180.00
2022-09-17T06:11:45.100Z,196.88
2022-09-17T06:12:45.117Z,185.63
2022-09-17T06:13:45.133Z,163.13
2022-09-17T06:14:45.149Z,146.25
2022-09-17T06:15:45.164Z,118.13
2022-09-17T06:16:45.310Z,101.25
2022-09-17T06:17:45.209Z,140.63
2022-09-17T06:18:45.218Z,118.13
2022-09-17T06:19:45.234Z,112.50
2022-09-17T06:20:45.250Z,106.88
2022-09-17T06:21:45.268Z,90.00
2022-09-17T06:22:45.282Z,106.88
2022-09-17T06:23:45.301Z,118.13
2022-09-17T06:24:45.318Z,90.00
2022-09-17T06:25:45.336Z,118.13
2022-09-17T06:26:45.350Z,135.00
2022-09-17T06:27:45.375Z,163.13
2022-09-17T06:28:45.391Z,196.88
2022-09-17T06:29:45.402Z,213.75
2022-09-17T06:30:45.421Z,236.25
2022-09-17T06:31:45.491Z,213.75
2022-09-17T06:32:45.465Z,219.38
2022-09-17T06:33:45.468Z,219.38
2022-09-17T06:34:45.483Z,213.75
2022-09-17T06:35:45.504Z,180.00
2022-09-17T06:36:45.517Z,168.75
2022-09-17T06:37:45.539Z,151.88
2022-09-17T06:38:45.555Z,135.00
2022-09-17T06:39:45.571Z,140.63
2022-09-17T06:40:45.587Z,157.50
2022-09-17T06:41:45.603Z,202.50
2022-09-17T06:42:45.624Z,180.00
2022-09-17T06:43:45.638Z,191.25
2022-09-17T06:44:45.655Z,174.38
2022-09-17T06:45:45.674Z,168.75
2022-09-17T06:46:45.711Z,163.13
2022-09-17T06:47:45.708Z,191.25
2022-09-17T06:48:45.723Z,180.00
2022-09-17T06:49:45.747Z,168.75
2022-09-17T06:50:45.757Z,146.25
2022-09-17T06:51:45.774Z,146.25
2022-09-17T06:52:45.792Z,146.25
2022-09-17T06:53:45.862Z,163.13
2022-09-17T06:54:45.826Z,168.75
2022-09-17T06:55:45.843Z,180.00
2022-09-17T06:56:45.858Z,180.00
2022-09-17T06:57:45.874Z,191.25
2022-09-17T06:58:45.894Z,185.63
2022-09-17T06:59:45.915Z,202.50
2022-09-17T07:00:45.967Z,264.38
2022-09-17T07:01:45.977Z,241.88
2022-09-17T07:02:45.959Z,264.38
2022-09-17T07:03:45.976Z,320.63
2022-09-17T07:04:45.997Z,286.88
2022-09-17T07:05:46.012Z,264.38
2022-09-17T07:06:46.027Z,326.25
2022-09-17T07:07:46.044Z,337.50
2022-09-17T07:08:46.080Z,393.75
2022-09-17T07:09:46.081Z,472.50
2022-09-17T07:10:46.098Z,438.75
2022-09-17T07:11:46.117Z,410.63
2022-09-17T07:12:49.785Z,410.63
2022-09-17T07:13:46.149Z,450.00
2022-09-17T07:14:46.166Z,495.00
2022-09-17T07:15:46.211Z,450.00
2022-09-17T07:16:46.202Z,421.88
2022-09-17T07:17:46.218Z,416.25
2022-09-17T07:18:46.235Z,320.63
2022-09-17T07:19:46.255Z,281.25
2022-09-17T07:20:46.272Z,298.13
2022-09-17T07:21:46.291Z,320.63
2022-09-17T07:22:46.308Z,309.38
2022-09-17T07:23:46.350Z,360.00
2022-09-17T07:24:46.344Z,365.63
2022-09-17T07:25:46.361Z,376.88
2022-09-17T07:26:46.381Z,438.75
2022-09-17T07:27:46.398Z,410.63
2022-09-17T07:28:46.412Z,472.50
2022-09-17T07:29:46.432Z,444.38
2022-09-17T07:30:46.450Z,455.63
2022-09-17T07:31:46.497Z,433.13
2022-09-17T07:32:46.484Z,455.63
2022-09-17T07:33:46.506Z,427.50
2022-09-17T07:34:46.519Z,388.13
2022-09-17T07:35:46.539Z,309.38
2022-09-17T07:36:46.560Z,292.50
2022-09-17T07:37:46.578Z,376.88
2022-09-17T07:38:46.654Z,399.38
2022-09-17T07:39:46.611Z,354.38
2022-09-17T07:40:46.643Z,450.00
2022-09-17T07:41:46.647Z,438.75
2022-09-17T07:42:46.664Z,438.75
2022-09-17T07:43:46.683Z,416.25
2022-09-17T07:44:46.706Z,410.63
2022-09-17T07:45:46.720Z,365.63
2022-09-17T07:46:46.789Z,348.75
2022-09-17T07:47:46.756Z,337.50
2022-09-17T07:48:46.774Z,399.38
2022-09-17T07:49:46.792Z,528.75
2022-09-17T07:50:46.812Z,658.13
2022-09-17T07:51:46.833Z,590.63
2022-09-17T07:52:46.851Z,624.38
2022-09-17T07:53:46.947Z,641.25
2022-09-17T07:54:46.884Z,545.63
2022-09-17T07:55:46.907Z,568.13
2022-09-17T07:56:46.923Z,517.50
2022-09-17T07:57:46.952Z,472.50
2022-09-17T07:58:46.961Z,483.75
2022-09-17T07:59:46.979Z,517.50
2022-09-17T08:00:46.996Z,562.50
2022-09-17T08:01:47.130Z,596.25
2022-09-17T08:02:47.125Z,540.00
2022-09-17T08:03:47.053Z,596.25
2022-09-17T08:04:47.086Z,618.75
2022-09-17T08:05:47.094Z,573.75
2022-09-17T08:06:47.106Z,495.00
2022-09-17T08:07:47.129Z,489.38
2022-09-17T08:08:47.145Z,450.00
2022-09-17T08:09:47.166Z,478.13
2022-09-17T08:10:47.183Z,376.88
2022-09-17T08:12:02.404Z,427.50
2022-09-17T08:12:47.223Z,511.88
2022-09-17T08:13:47.240Z,573.75
2022-09-17T08:14:47.260Z,585.00
2022-09-17T08:15:47.353Z,652.50
2022-09-17T08:16:47.342Z,585.00
2022-09-17T08:17:47.330Z,630.00
2022-09-17T08:18:47.345Z,495.00
2022-09-17T08:19:47.354Z,433.13
2022-09-17T08:20:47.383Z,517.50
2022-09-17T08:21:47.391Z,489.38
2022-09-17T08:22:50.133Z,472.50
2022-09-17T08:23:47.473Z,523.13
2022-09-17T08:24:47.449Z,635.63
2022-09-17T08:25:47.468Z,562.50
2022-09-17T08:26:47.493Z,568.13
2022-09-17T08:27:47.511Z,506.25
2022-09-17T08:28:47.528Z,466.88
2022-09-17T08:29:47.542Z,652.50
2022-09-17T08:30:47.563Z,618.75
2022-09-17T08:31:47.649Z,500.63
2022-09-17T08:32:47.602Z,506.25
2022-09-17T08:33:47.621Z,691.88
2022-09-17T08:34:47.642Z,753.75
2022-09-17T08:35:47.664Z,759.38
2022-09-17T08:36:47.679Z,714.38
2022-09-17T08:37:47.700Z,472.50
2022-09-17T08:38:47.761Z,326.25
2022-09-17T08:39:47.737Z,399.38
2022-09-17T08:40:47.757Z,500.63
2022-09-17T08:41:47.780Z,416.25
2022-09-17T08:42:47.793Z,320.63
2022-09-17T08:43:47.814Z,376.88
2022-09-17T08:44:49.122Z,618.75
2022-09-17T08:45:47.854Z,472.50
2022-09-17T08:46:47.946Z,613.13
2022-09-17T08:47:47.891Z,675.00
2022-09-17T08:48:47.910Z,495.00
2022-09-17T08:49:47.929Z,523.13
2022-09-17T08:50:47.948Z,1012.50
2022-09-17T08:51:47.968Z,950.63
2022-09-17T08:52:47.991Z,596.25
2022-09-17T08:53:48.009Z,444.38
2022-09-17T08:54:48.025Z,331.88
2022-09-17T08:55:48.045Z,298.13
2022-09-17T08:56:48.068Z,371.25
2022-09-17T08:57:48.083Z,461.25
2022-09-17T08:58:48.103Z,461.25
2022-09-17T08:59:48.122Z,528.75
2022-09-17T09:00:48.140Z,410.63
2022-09-17T09:01:48.219Z,382.50
2022-09-17T09:02:48.210Z,331.88
2022-09-17T09:03:48.200Z,264.38
2022-09-17T09:04:48.229Z,213.75
2022-09-17T09:05:48.237Z,163.13
2022-09-17T09:06:48.258Z,191.25
2022-09-17T09:07:48.276Z,354.38
2022-09-17T09:08:48.296Z,573.75
2022-09-17T09:09:48.315Z,331.88
2022-09-17T09:10:48.334Z,236.25
2022-09-17T09:11:48.354Z,416.25
2022-09-17T09:12:48.372Z,506.25
2022-09-17T09:13:48.393Z,579.38
2022-09-17T09:14:48.408Z,348.75
2022-09-17T09:15:48.493Z,303.75
2022-09-17T09:16:48.447Z,579.38
2022-09-17T09:17:48.466Z,714.38
2022-09-17T09:18:48.484Z,697.50
2022-09-17T09:19:48.506Z,630.00
2022-09-17T09:20:48.523Z,466.88
2022-09-17T09:21:48.542Z,590.63
2022-09-17T09:22:48.562Z,703.13
2022-09-17T09:23:48.648Z,590.63
2022-09-17T09:24:48.599Z,382.50
2022-09-17T09:25:48.617Z,360.00
2022-09-17T09:26:48.636Z,455.63
2022-09-17T09:27:48.657Z,680.63
2022-09-17T09:28:48.678Z,804.38
2022-09-17T09:29:48.694Z,466.88
2022-09-17T09:30:48.713Z,281.25
2022-09-17T09:31:48.841Z,444.38
2022-09-17T09:32:48.753Z,759.38
2022-09-17T09:33:48.772Z,703.13
2022-09-17T09:34:48.788Z,793.13
2022-09-17T09:35:48.808Z,877.50
2022-09-17T09:36:48.830Z,776.25
2022-09-17T09:37:48.849Z,590.63
2022-09-17T09:38:48.933Z,545.63
2022-09-17T09:39:48.888Z,545.63
2022-09-17T09:40:48.906Z,579.38
2022-09-17T09:41:48.927Z,534.38
2022-09-17T09:42:48.959Z,461.25
2022-09-17T09:44:05.280Z,433.13
2022-09-17T09:44:48.988Z,365.63
2022-09-17T09:45:49.004Z,348.75
2022-09-17T09:46:49.074Z,478.13
2022-09-17T09:47:49.045Z,568.13
2022-09-17T09:48:49.064Z,646.88
2022-09-17T09:49:49.084Z,646.88
2022-09-17T09:51:05.783Z,517.50
2022-09-17T09:51:49.124Z,315.00
2022-09-17T09:52:49.142Z,298.13
2022-09-17T09:53:49.219Z,275.63
2022-09-17T09:54:49.181Z,337.50
2022-09-17T09:55:49.203Z,405.00
2022-09-17T09:56:49.222Z,421.88
2022-09-17T09:57:49.249Z,416.25
2022-09-17T09:58:49.263Z,421.88
2022-09-17T09:59:49.284Z,438.75
2022-09-17T10:00:49.303Z,376.88
2022-09-17T10:01:49.441Z,365.63
2022-09-17T10:02:49.501Z,551.25
2022-09-17T10:03:49.360Z,793.13
2022-09-17T10:04:53.218Z,916.88
2022-09-17T10:05:49.395Z,1035.00
2022-09-17T10:06:49.414Z,990.00
2022-09-17T10:07:49.441Z,703.13
2022-09-17T10:08:49.516Z,455.63
2022-09-17T10:09:49.495Z,365.63
2022-09-17T10:10:49.489Z,337.50
2022-09-17T10:11:49.508Z,326.25
2022-09-17T10:12:49.527Z,320.63
2022-09-17T10:13:49.547Z,320.63
2022-09-17T10:14:49.565Z,331.88
2022-09-17T10:15:49.649Z,416.25
2022-09-17T10:16:49.604Z,354.38
2022-09-17T10:17:49.627Z,382.50
2022-09-17T10:18:49.642Z,365.63
2022-09-17T10:19:49.662Z,393.75
2022-09-17T10:20:49.682Z,461.25
2022-09-17T10:21:49.701Z,405.00
2022-09-17T10:22:49.717Z,438.75
2022-09-17T10:23:49.735Z,489.38
2022-09-17T10:24:49.758Z,607.50
2022-09-17T10:25:49.775Z,894.38
2022-09-17T10:26:49.797Z,1006.88
2022-09-17T10:27:49.813Z,973.13
2022-09-17T10:28:49.832Z,765.00
2022-09-17T10:29:49.854Z,585.00
2022-09-17T10:30:49.871Z,393.75
2022-09-17T10:31:49.965Z,427.50
2022-09-17T10:32:49.910Z,545.63
2022-09-17T10:33:49.929Z,618.75
2022-09-17T10:34:49.948Z,663.75
2022-09-17T10:35:49.968Z,641.25
2022-09-17T10:36:49.990Z,624.38
2022-09-17T10:37:50.008Z,680.63
2022-09-17T10:38:50.027Z,697.50
2022-09-17T10:39:50.097Z,658.13
2022-09-17T10:40:50.067Z,590.63
2022-09-17T10:41:50.094Z,528.75
2022-09-17T10:42:50.106Z,601.88
2022-09-17T10:43:50.126Z,669.38
2022-09-17T10:44:50.144Z,714.38
2022-09-17T10:45:50.164Z,720.00
2022-09-17T10:46:50.225Z,708.75
2022-09-17T10:47:50.204Z,568.13
2022-09-17T10:48:50.224Z,450.00
2022-09-17T10:49:50.249Z,348.75
2022-09-17T10:50:50.265Z,281.25
2022-09-17T10:51:50.284Z,303.75
2022-09-17T10:52:50.302Z,433.13
2022-09-17T10:53:50.323Z,658.13
2022-09-17T10:54:50.351Z,900.00
2022-09-17T10:55:50.363Z,1029.38
2022-09-17T10:56:50.381Z,978.75
2022-09-17T10:57:50.432Z,725.63
2022-09-17T10:58:50.421Z,573.75
2022-09-17T10:59:50.442Z,506.25
2022-09-17T11:00:50.463Z,517.50
2022-09-17T11:01:50.561Z,483.75
2022-09-17T11:02:50.532Z,461.25
2022-09-17T11:03:50.523Z,427.50
2022-09-17T11:04:50.542Z,438.75
2022-09-17T11:05:50.562Z,416.25
2022-09-17T11:06:50.582Z,461.25
2022-09-17T11:07:50.602Z,393.75
2022-09-17T11:08:50.624Z,315.00
2022-09-17T11:09:50.642Z,331.88
2022-09-17T11:10:50.661Z,348.75
2022-09-17T11:11:50.682Z,348.75
2022-09-17T11:12:50.700Z,388.13
2022-09-17T11:13:50.723Z,500.63
2022-09-17T11:14:50.759Z,686.25
2022-09-17T11:15:53.080Z,793.13
2022-09-17T11:16:50.854Z,759.38
2022-09-17T11:17:50.799Z,714.38
2022-09-17T11:18:50.817Z,720.00
2022-09-17T11:19:50.838Z,703.13
2022-09-17T11:20:50.860Z,714.38
2022-09-17T11:21:50.879Z,748.13
2022-09-17T11:22:50.897Z,776.25
2022-09-17T11:23:50.915Z,742.50
2022-09-17T11:24:50.944Z,652.50
2022-09-17T11:25:50.956Z,450.00
2022-09-17T11:26:50.980Z,405.00
2022-09-17T11:27:50.995Z,371.25
2022-09-17T11:28:51.027Z,298.13
2022-09-17T11:29:51.035Z,247.50
2022-09-17T11:30:51.057Z,225.00
2022-09-17T11:31:51.118Z,241.88
2022-09-17T11:32:51.095Z,270.00
2022-09-17T11:33:51.115Z,326.25
2022-09-17T11:34:51.138Z,405.00
2022-09-17T11:35:51.156Z,483.75
2022-09-17T11:36:51.180Z,573.75
2022-09-17T11:37:51.210Z,736.88
2022-09-17T11:38:51.212Z,849.38
2022-09-17T11:39:51.280Z,832.50
2022-09-17T11:40:51.260Z,810.00
2022-09-17T11:41:51.272Z,810.00
2022-09-17T11:42:51.293Z,804.38
2022-09-17T11:43:51.313Z,787.50
2022-09-17T11:44:51.331Z,815.63
2022-09-17T11:45:51.353Z,883.13
2022-09-17T11:46:51.414Z,888.75
2022-09-17T11:47:51.389Z,911.25
2022-09-17T11:48:51.410Z,916.88
2022-09-17T11:49:51.430Z,838.13
2022-09-17T11:50:51.452Z,590.63
2022-09-17T11:51:51.473Z,511.88
2022-09-17T11:52:51.488Z,495.00
2022-09-17T11:53:51.511Z,438.75
2022-09-17T11:54:51.527Z,523.13
2022-09-17T11:55:51.549Z,793.13
2022-09-17T11:56:51.570Z,911.25
2022-09-17T11:57:51.592Z,826.88
2022-09-17T11:58:51.619Z,630.00
2022-09-17T11:59:51.633Z,393.75
2022-09-17T12:00:51.651Z,275.63
2022-09-17T12:01:51.728Z,270.00
2022-09-17T12:02:51.735Z,298.13
2022-09-17T12:03:51.711Z,275.63
2022-09-17T12:04:51.735Z,303.75
2022-09-17T12:05:51.753Z,444.38
2022-09-17T12:06:51.804Z,568.13
2022-09-17T12:07:51.792Z,607.50
2022-09-17T12:08:51.813Z,646.88
2022-09-17T12:09:51.833Z,708.75
2022-09-17T12:10:51.853Z,781.88
2022-09-17T12:11:51.875Z,686.25
2022-09-17T12:12:51.897Z,596.25
2022-09-17T12:13:51.913Z,517.50
2022-09-17T12:14:51.934Z,360.00
2022-09-17T12:15:53.636Z,275.63
2022-09-17T12:16:51.982Z,309.38
2022-09-17T12:18:03.848Z,427.50
2022-09-17T12:18:52.014Z,495.00
2022-09-17T12:19:52.034Z,455.63
2022-09-17T12:20:52.054Z,371.25
2022-09-17T12:21:52.076Z,331.88
2022-09-17T12:22:52.095Z,331.88
2022-09-17T12:23:52.114Z,405.00
2022-09-17T12:24:52.133Z,556.88
2022-09-17T12:25:52.153Z,736.88
2022-09-17T12:26:52.173Z,866.25
2022-09-17T12:27:52.190Z,860.63
2022-09-17T12:28:52.212Z,765.00
2022-09-17T12:29:52.229Z,697.50
2022-09-17T12:30:52.248Z,641.25
2022-09-17T12:31:52.267Z,506.25
2022-09-17T12:32:52.288Z,405.00
2022-09-17T12:33:52.307Z,315.00
2022-09-17T12:34:52.325Z,292.50
2022-09-17T12:36:04.067Z,275.63
2022-09-17T12:36:52.362Z,264.38
2022-09-17T12:37:52.381Z,258.75
2022-09-17T12:38:52.398Z,258.75
2022-09-17T12:39:52.461Z,253.13
2022-09-17T12:40:52.436Z,253.13
2022-09-17T12:41:52.459Z,253.13
2022-09-17T12:42:52.474Z,258.75
2022-09-17T12:43:52.492Z,253.13
2022-09-17T12:44:52.511Z,270.00
2022-09-17T12:45:52.528Z,270.00
2022-09-17T12:46:52.596Z,427.50
2022-09-17T12:47:52.567Z,450.00
2022-09-17T12:48:52.582Z,331.88